createdAt,value
2023-03-23T16:00:11.138Z,0.93
2023-03-23T16:02:38.184Z,0.80
2023-03-23T16:05:05.147Z,1.17
2023-03-23T16:07:31.767Z,1.00
2023-03-23T16:09:58.409Z,0.80
2023-03-23T16:12:25.438Z,1.10
2023-03-23T16:14:52.589Z,1.10
2023-03-23T16:17:20.076Z,2.20
2023-03-23T16:19:46.662Z,2.45
2023-03-23T16:22:13.280Z,1.13
2023-03-23T16:24:39.906Z,0.77
2023-03-23T16:27:06.550Z,1.25
2023-03-23T16:29:54.165Z,1.05
2023-03-23T16:32:19.799Z,1.10
2023-03-23T16:34:46.413Z,1.10
2023-03-23T16:37:13.346Z,1.02
2023-03-23T16:39:40.087Z,1.20
2023-03-23T16:42:06.731Z,1.17
2023-03-23T16:44:33.337Z,1.30
2023-03-23T16:47:00.243Z,1.20
2023-03-23T16:49:27.112Z,1.10
2023-03-23T16:51:53.824Z,1.20
2023-03-23T16:54:20.463Z,1.00
2023-03-23T16:56:48.956Z,1.20
2023-03-23T16:59:16.034Z,1.00
2023-03-23T17:01:43.233Z,1.60
2023-03-23T17:04:09.966Z,1.40
2023-03-23T17:06:36.655Z,1.73
2023-03-23T17:09:03.279Z,2.25
2023-03-23T17:11:29.873Z,2.30
2023-03-23T17:13:56.498Z,2.22
2023-03-23T17:16:23.322Z,1.83
2023-03-23T17:18:50.023Z,2.20
2023-03-23T17:21:16.659Z,1.90
2023-03-23T17:23:43.291Z,1.92
2023-03-23T17:26:09.902Z,1.85
2023-03-23T17:28:36.541Z,2.35
2023-03-23T17:31:03.200Z,2.10
2023-03-23T17:33:29.879Z,1.90
2023-03-23T17:35:56.503Z,2.15
2023-03-23T17:38:23.156Z,1.70
2023-03-23T17:40:56.932Z,1.67
2023-03-23T17:43:23.549Z,1.88
2023-03-23T17:45:50.346Z,1.92
2023-03-23T17:48:17.094Z,1.73
2023-03-23T17:50:47.519Z,2.30
2023-03-23T17:53:14.170Z,1.52
2023-03-23T17:55:43.107Z,1.45
2023-03-23T17:58:10.196Z,2.38
2023-03-23T18:00:37.559Z,1.90
2023-03-23T18:03:04.313Z,2.00
2023-03-23T18:05:31.943Z,2.67
2023-03-23T18:07:58.617Z,2.42
2023-03-23T18:10:25.686Z,1.83
2023-03-23T18:12:52.309Z,1.80
2023-03-23T18:15:18.948Z,2.50
2023-03-23T18:17:48.169Z,1.73
2023-03-23T18:20:14.964Z,1.90
2023-03-23T18:22:42.340Z,1.60
2023-03-23T18:25:08.990Z,1.85
2023-03-23T18:27:35.686Z,2.15
2023-03-23T18:30:03.062Z,1.75
2023-03-23T18:32:29.730Z,2.00
2023-03-23T18:34:56.412Z,1.60
2023-03-23T18:37:23.043Z,2.03
2023-03-23T18:39:49.673Z,1.95
2023-03-23T18:42:16.286Z,1.92
2023-03-23T18:44:42.976Z,1.70
2023-03-23T18:47:09.569Z,2.20
2023-03-23T18:49:36.204Z,2.20
2023-03-23T18:52:02.876Z,1.98
2023-03-23T18:54:29.543Z,1.85
2023-03-23T18:57:00.323Z,1.92
2023-03-23T18:59:30.572Z,2.13
2023-03-23T19:01:57.761Z,1.85
2023-03-23T19:04:24.526Z,2.33
2023-03-23T19:06:51.223Z,2.08
2023-03-23T19:09:18.884Z,1.80
2023-03-23T19:11:47.178Z,2.33
2023-03-23T19:14:13.857Z,2.42
2023-03-23T19:16:41.373Z,2.10
2023-03-23T19:19:10.721Z,1.95
2023-03-23T19:21:37.868Z,2.70
2023-03-23T19:24:07.221Z,1.70
2023-03-23T19:26:38.542Z,2.00
2023-03-23T19:29:25.980Z,1.77
2023-03-23T19:31:56.878Z,2.30
2023-03-23T19:34:24.539Z,1.85
2023-03-23T19:36:56.511Z,1.88
2023-03-23T19:39:30.915Z,2.10
2023-03-23T19:41:57.638Z,1.80
2023-03-23T19:44:24.463Z,2.22
2023-03-23T19:46:51.900Z,2.20
2023-03-23T19:49:18.568Z,2.22
2023-03-23T19:51:45.171Z,2.30
2023-03-23T19:54:13.068Z,2.63
2023-03-23T19:56:39.954Z,2.35
2023-03-23T19:59:09.526Z,2.22
2023-03-23T20:01:36.379Z,2.55
2023-03-23T20:04:05.251Z,2.35
2023-03-23T20:06:32.206Z,2.60
2023-03-23T20:09:00.030Z,3.08
2023-03-23T20:11:27.676Z,2.97
2023-03-23T20:13:55.194Z,3.53
2023-03-23T20:16:21.936Z,3.78
2023-03-23T20:18:49.962Z,3.22
2023-03-23T20:21:20.281Z,2.67
2023-03-23T20:23:47.403Z,2.72
2023-03-23T20:26:23.249Z,3.38
2023-03-23T20:28:50.163Z,3.20
2023-03-23T20:31:24.248Z,2.60
2023-03-23T20:34:00.143Z,3.10
2023-03-23T20:36:45.398Z,3.25
2023-03-23T20:39:21.087Z,2.60
2023-03-23T20:41:50.641Z,2.92
2023-03-23T20:44:17.916Z,3.10
2023-03-23T20:46:45.762Z,2.88
2023-03-23T20:49:12.992Z,2.90
2023-03-23T20:51:39.969Z,3.17
2023-03-23T20:54:06.606Z,3.60
2023-03-23T20:56:33.915Z,3.17
2023-03-23T20:59:01.654Z,3.33
2023-03-23T21:01:28.621Z,4.18
2023-03-23T21:03:56.911Z,3.10
2023-03-23T21:06:28.056Z,3.70
2023-03-23T21:08:54.985Z,3.03
2023-03-23T21:11:23.154Z,3.08
2023-03-23T21:13:50.627Z,3.03
2023-03-23T21:16:18.870Z,3.55
2023-03-23T21:18:45.974Z,3.40
2023-03-23T21:21:14.760Z,3.40
2023-03-23T21:23:46.619Z,3.75
2023-03-23T21:26:16.613Z,3.75
2023-03-23T21:28:44.148Z,3.75
2023-03-23T21:31:11.137Z,3.20
2023-03-23T21:33:37.737Z,2.95
2023-03-23T21:36:04.580Z,3.10
2023-03-23T21:38:31.492Z,2.88
2023-03-23T21:40:59.222Z,2.67
2023-03-23T21:43:27.139Z,2.70
2023-03-23T21:45:56.175Z,3.47
2023-03-23T21:48:23.753Z,3.20
2023-03-23T21:50:51.518Z,2.72
2023-03-23T21:53:18.312Z,2.50
2023-03-23T21:55:51.105Z,2.95
2023-03-23T21:58:21.888Z,3.22
2023-03-23T22:00:53.746Z,3.40
2023-03-23T22:03:24.062Z,3.30
2023-03-23T22:05:54.365Z,3.30
2023-03-23T22:08:22.328Z,3.35
2023-03-23T22:11:00.394Z,2.95
2023-03-23T22:13:29.175Z,2.75
2023-03-23T22:15:56.830Z,3.50
2023-03-23T22:18:23.488Z,2.95
2023-03-23T22:20:50.185Z,3.08
2023-03-23T22:23:17.159Z,2.90
2023-03-23T22:25:43.886Z,3.10
2023-03-23T22:28:10.508Z,2.60
2023-03-23T22:30:37.193Z,3.25
2023-03-23T22:33:03.850Z,2.88
2023-03-23T22:35:30.665Z,2.28
2023-03-23T22:37:57.296Z,2.40
2023-03-23T22:40:23.990Z,3.03
2023-03-23T22:42:51.509Z,2.95
2023-03-23T22:45:18.377Z,2.83
2023-03-23T22:47:45.306Z,2.67
2023-03-23T22:50:12.021Z,2.25
2023-03-23T22:52:38.731Z,2.55
2023-03-23T22:55:08.438Z,3.05
2023-03-23T22:57:35.467Z,2.40
2023-03-23T23:00:07.819Z,2.65
2023-03-23T23:02:34.739Z,2.45
2023-03-23T23:05:02.041Z,2.88
2023-03-23T23:07:28.643Z,2.50
2023-03-23T23:09:55.316Z,2.72
2023-03-23T23:12:22.207Z,2.65
2023-03-23T23:14:48.857Z,2.65
2023-03-23T23:17:15.460Z,2.60
2023-03-23T23:19:42.099Z,2.22
2023-03-23T23:22:18.458Z,2.78
2023-03-23T23:24:46.252Z,2.50
2023-03-23T23:27:13.141Z,2.90
2023-03-23T23:29:40.721Z,2.83
2023-03-23T23:32:08.438Z,3.33
2023-03-23T23:34:35.307Z,2.80
2023-03-23T23:37:02.168Z,3.42
2023-03-23T23:39:28.821Z,2.72
2023-03-23T23:41:55.774Z,2.90
2023-03-23T23:44:23.026Z,3.72
2023-03-23T23:46:49.669Z,3.38
2023-03-23T23:49:16.329Z,3.50
2023-03-23T23:51:44.863Z,3.85
2023-03-23T23:54:14.708Z,3.50
2023-03-23T23:56:41.376Z,3.78
2023-03-23T23:59:08.071Z,3.90
